sensor_id;sensor_type;location;lat;lon;timestamp;pressure;altitude;pressure_sealevel;temperature;humidity
22031;BME280;11179;52.106;21.024;2023-04-15T00:01:45;99649.34;;;10.07;62.14
22031;BME280;11179;52.106;21.024;2023-04-15T00:04:11;99640.53;;;9.90;63.17
22031;BME280;11179;52.106;21.024;2023-04-15T00:06:36;99648.47;;;9.87;63.07
22031;BME280;11179;52.106;21.024;2023-04-15T00:09:03;99652.81;;;9.72;64.57
22031;BME280;11179;52.106;21.024;2023-04-15T00:11:29;99634.44;;;9.58;65.29
22031;BME280;11179;52.106;21.024;2023-04-15T00:13:54;99649.22;;;9.57;65.43
22031;BME280;11179;52.106;21.024;2023-04-15T00:16:19;99638.78;;;9.54;65.59
22031;BME280;11179;52.106;21.024;2023-04-15T00:18:45;99653.03;;;9.56;65.71
22031;BME280;11179;52.106;21.024;2023-04-15T00:21:11;99636.28;;;9.42;66.37
22031;BME280;11179;52.106;21.024;2023-04-15T00:23:36;99637.38;;;9.41;66.90
22031;BME280;11179;52.106;21.024;2023-04-15T00:26:02;99642.03;;;9.40;66.68
22031;BME280;11179;52.106;21.024;2023-04-15T00:28:27;99641.47;;;9.38;66.97
22031;BME280;11179;52.106;21.024;2023-04-15T00:30:52;99634.09;;;9.44;67.11
22031;BME280;11179;52.106;21.024;2023-04-15T00:33:17;99628.03;;;9.37;67.06
22031;BME280;11179;52.106;21.024;2023-04-15T00:35:43;99637.91;;;9.38;67.57
22031;BME280;11179;52.106;21.024;2023-04-15T00:38:08;99632.69;;;9.31;67.88
22031;BME280;11179;52.106;21.024;2023-04-15T00:40:34;99619.78;;;9.32;67.51
22031;BME280;11179;52.106;21.024;2023-04-15T00:42:59;99617.03;;;9.27;67.94
22031;BME280;11179;52.106;21.024;2023-04-15T00:45:25;99630.22;;;9.35;67.86
22031;BME280;11179;52.106;21.024;2023-04-15T00:47:52;99614.31;;;9.32;67.60
22031;BME280;11179;52.106;21.024;2023-04-15T00:50:17;99627.47;;;9.35;67.89
22031;BME280;11179;52.106;21.024;2023-04-15T00:52:43;99628.03;;;9.37;67.56
22031;BME280;11179;52.106;21.024;2023-04-15T00:55:09;99629.69;;;9.38;67.75
22031;BME280;11179;52.106;21.024;2023-04-15T00:57:35;99633.50;;;9.37;68.02
22031;BME280;11179;52.106;21.024;2023-04-15T01:00:01;99644.75;;;9.40;67.85
22031;BME280;11179;52.106;21.024;2023-04-15T01:02:26;99635.94;;;9.28;68.19
22031;BME280;11179;52.106;21.024;2023-04-15T01:04:52;99637.28;;;9.21;68.13
22031;BME280;11179;52.106;21.024;2023-04-15T01:07:17;99627.13;;;9.16;68.83
22031;BME280;11179;52.106;21.024;2023-04-15T01:09:43;99617.50;;;9.08;69.10
22031;BME280;11179;52.106;21.024;2023-04-15T01:12:11;99632.63;;;9.16;69.18
22031;BME280;11179;52.106;21.024;2023-04-15T01:14:38;99627.97;;;9.17;69.17
22031;BME280;11179;52.106;21.024;2023-04-15T01:17:03;99621.38;;;9.13;68.98
22031;BME280;11179;52.106;21.024;2023-04-15T01:19:29;99627.97;;;9.17;69.37
22031;BME280;11179;52.106;21.024;2023-04-15T01:21:55;99635.06;;;9.13;69.64
22031;BME280;11179;52.106;21.024;2023-04-15T01:24:22;99645.97;;;9.07;69.66
22031;BME280;11179;52.106;21.024;2023-04-15T01:26:48;99630.03;;;8.94;70.32
22031;BME280;11179;52.106;21.024;2023-04-15T01:29:14;99619.06;;;8.94;70.29
22031;BME280;11179;52.106;21.024;2023-04-15T01:31:40;99641.31;;;9.03;70.02
22031;BME280;11179;52.106;21.024;2023-04-15T01:34:05;99627.84;;;8.96;70.38
22031;BME280;11179;52.106;21.024;2023-04-15T01:36:31;99620.97;;;8.89;70.82
22031;BME280;11179;52.106;21.024;2023-04-15T01:38:57;99637.16;;;8.95;70.96
22031;BME280;11179;52.106;21.024;2023-04-15T01:41:26;99636.09;;;9.01;70.83
22031;BME280;11179;52.106;21.024;2023-04-15T01:43:52;99631.44;;;9.02;70.53
22031;BME280;11179;52.106;21.024;2023-04-15T01:46:18;99631.19;;;9.08;70.45
22031;BME280;11179;52.106;21.024;2023-04-15T01:48:43;99622.94;;;8.98;71.04
22031;BME280;11179;52.106;21.024;2023-04-15T01:51:08;99638.78;;;8.96;70.85
22031;BME280;11179;52.106;21.024;2023-04-15T01:53:34;99628.31;;;8.83;71.41
22031;BME280;11179;52.106;21.024;2023-04-15T01:56:00;99635.44;;;8.84;71.68
22031;BME280;11179;52.106;21.024;2023-04-15T01:58:25;99637.66;;;8.87;71.78
22031;BME280;11179;52.106;21.024;2023-04-15T02:00:51;99631.63;;;8.85;72.10
22031;BME280;11179;52.106;21.024;2023-04-15T02:03:17;99633.78;;;8.83;72.33
22031;BME280;11179;52.106;21.024;2023-04-15T02:05:43;99632.72;;;8.84;72.46
22031;BME280;11179;52.106;21.024;2023-04-15T02:08:10;99622.28;;;8.76;72.20
22031;BME280;11179;52.106;21.024;2023-04-15T02:10:36;99626.09;;;8.75;72.62
22031;BME280;11179;52.106;21.024;2023-04-15T02:13:01;99632.41;;;8.76;73.00
22031;BME280;11179;52.106;21.024;2023-04-15T02:15:26;99626.09;;;8.75;72.74
22031;BME280;11179;52.106;21.024;2023-04-15T02:17:52;99630.75;;;8.75;72.65
22031;BME280;11179;52.106;21.024;2023-04-15T02:20:19;99629.41;;;8.77;72.62
22031;BME280;11179;52.106;21.024;2023-04-15T02:22:45;99634.31;;;8.75;73.13
22031;BME280;11179;52.106;21.024;2023-04-15T02:25:11;99633.16;;;8.71;73.17
22031;BME280;11179;52.106;21.024;2023-04-15T02:27:36;99628.53;;;8.71;73.69
22031;BME280;11179;52.106;21.024;2023-04-15T02:30:02;99636.16;;;8.69;73.47
22031;BME280;11179;52.106;21.024;2023-04-15T02:32:27;99617.84;;;8.70;73.66
22031;BME280;11179;52.106;21.024;2023-04-15T02:34:53;99627.13;;;8.69;73.68
22031;BME280;11179;52.106;21.024;2023-04-15T02:37:19;99628.25;;;8.73;73.44
22031;BME280;11179;52.106;21.024;2023-04-15T02:39:44;99626.03;;;8.70;74.21
22031;BME280;11179;52.106;21.024;2023-04-15T02:42:10;99620.00;;;8.68;74.30
22031;BME280;11179;52.106;21.024;2023-04-15T02:44:36;99629.91;;;8.74;74.13
22031;BME280;11179;52.106;21.024;2023-04-15T02:47:01;99621.41;;;8.70;73.98
22031;BME280;11179;52.106;21.024;2023-04-15T02:49:27;99615.41;;;8.74;74.30
22031;BME280;11179;52.106;21.024;2023-04-15T02:51:55;99618.44;;;8.77;73.84
22031;BME280;11179;52.106;21.024;2023-04-15T02:54:23;99614.63;;;8.78;74.26
22031;BME280;11179;52.106;21.024;2023-04-15T02:56:48;99607.41;;;8.67;74.29
22031;BME280;11179;52.106;21.024;2023-04-15T02:59:14;99620.63;;;8.75;74.24
22031;BME280;11179;52.106;21.024;2023-04-15T03:01:40;99619.22;;;8.73;74.30
22031;BME280;11179;52.106;21.024;2023-04-15T03:04:05;99611.53;;;8.64;74.22
22031;BME280;11179;52.106;21.024;2023-04-15T03:06:33;99617.63;;;8.82;74.16
22031;BME280;11179;52.106;21.024;2023-04-15T03:08:58;99617.63;;;8.77;74.46
22031;BME280;11179;52.106;21.024;2023-04-15T03:11:25;99618.72;;;8.76;74.24
22031;BME280;11179;52.106;21.024;2023-04-15T03:13:51;99617.88;;;8.75;74.35
22031;BME280;11179;52.106;21.024;2023-04-15T03:16:16;99615.88;;;8.65;74.64
22031;BME280;11179;52.106;21.024;2023-04-15T03:18:42;99613.69;;;8.62;74.75
22031;BME280;11179;52.106;21.024;2023-04-15T03:21:07;99617.88;;;8.75;74.84
22031;BME280;11179;52.106;21.024;2023-04-15T03:23:32;99620.06;;;8.73;74.92
22031;BME280;11179;52.106;21.024;2023-04-15T03:26:01;99626.66;;;8.77;74.54
22031;BME280;11179;52.106;21.024;2023-04-15T03:28:26;99609.31;;;8.66;75.40
22031;BME280;11179;52.106;21.024;2023-04-15T03:30:51;99618.94;;;8.69;75.35
22031;BME280;11179;52.106;21.024;2023-04-15T03:33:17;99618.97;;;8.74;75.33
22031;BME280;11179;52.106;21.024;2023-04-15T03:35:42;99619.28;;;8.78;75.27
22031;BME280;11179;52.106;21.024;2023-04-15T03:38:07;99612.97;;;8.77;75.30
22031;BME280;11179;52.106;21.024;2023-04-15T03:40:33;99617.88;;;8.80;74.88
22031;BME280;11179;52.106;21.024;2023-04-15T03:42:58;99615.72;;;8.82;74.99
22031;BME280;11179;52.106;21.024;2023-04-15T03:45:24;99622.84;;;8.83;74.72
22031;BME280;11179;52.106;21.024;2023-04-15T03:47:49;99615.13;;;8.75;74.99
22031;BME280;11179;52.106;21.024;2023-04-15T03:50:15;99612.97;;;8.77;75.23
22031;BME280;11179;52.106;21.024;2023-04-15T03:52:40;99625.56;;;8.78;75.35
22031;BME280;11179;52.106;21.024;2023-04-15T03:55:05;99628.56;;;8.77;75.26
22031;BME280;11179;52.106;21.024;2023-04-15T03:57:32;99633.78;;;8.78;75.21
22031;BME280;11179;52.106;21.024;2023-04-15T04:00:03;99628.84;;;8.80;75.28
22031;BME280;11179;52.106;21.024;2023-04-15T04:02:28;99634.31;;;8.80;75.08
22031;BME280;11179;52.106;21.024;2023-04-15T04:04:53;99631.34;;;8.87;75.03
22031;BME280;11179;52.106;21.024;2023-04-15T04:07:19;99624.75;;;8.83;74.84
22031;BME280;11179;52.106;21.024;2023-04-15T04:09:44;99625.00;;;8.76;75.02
22031;BME280;11179;52.106;21.024;2023-04-15T04:12:09;99636.78;;;8.77;75.47
22031;BME280;11179;52.106;21.024;2023-04-15T04:14:35;99628.78;;;8.70;75.62
22031;BME280;11179;52.106;21.024;2023-04-15T04:17:00;99638.13;;;8.74;76.22
22031;BME280;11179;52.106;21.024;2023-04-15T04:19:26;99637.00;;;8.70;75.94
22031;BME280;11179;52.106;21.024;2023-04-15T04:21:51;99640.56;;;8.70;76.29
22031;BME280;11179;52.106;21.024;2023-04-15T04:24:17;99627.44;;;8.73;76.29
22031;BME280;11179;52.106;21.024;2023-04-15T04:26:42;99630.19;;;8.73;76.13
22031;BME280;11179;52.106;21.024;2023-04-15T04:29:07;99629.66;;;8.81;75.83
22031;BME280;11179;52.106;21.024;2023-04-15T04:31:33;99628.81;;;8.75;75.81
22031;BME280;11179;52.106;21.024;2023-04-15T04:33:58;99622.53;;;8.80;75.76
22031;BME280;11179;52.106;21.024;2023-04-15T04:36:23;99635.44;;;8.84;76.06
22031;BME280;11179;52.106;21.024;2023-04-15T04:38:49;99619.53;;;8.81;75.79
22031;BME280;11179;52.106;21.024;2023-04-15T04:41:14;99632.72;;;8.84;75.50
22031;BME280;11179;52.106;21.024;2023-04-15T04:43:40;99627.75;;;8.81;75.89
22031;BME280;11179;52.106;21.024;2023-04-15T04:46:05;99627.75;;;8.76;75.86
22031;BME280;11179;52.106;21.024;2023-04-15T04:48:30;99631.56;;;8.80;76.06
22031;BME280;11179;52.106;21.024;2023-04-15T04:50:55;99633.53;;;8.85;75.85
22031;BME280;11179;52.106;21.024;2023-04-15T04:53:21;99635.44;;;8.84;75.91
22031;BME280;11179;52.106;21.024;2023-04-15T04:55:46;99637.09;;;8.85;75.75
22031;BME280;11179;52.106;21.024;2023-04-15T04:58:12;99632.16;;;8.82;76.07
22031;BME280;11179;52.106;21.024;2023-04-15T05:00:37;99635.97;;;8.81;76.15
22031;BME280;11179;52.106;21.024;2023-04-15T05:03:03;99629.44;;;8.87;76.24
22031;BME280;11179;52.106;21.024;2023-04-15T05:05:28;99638.50;;;8.93;75.67
22031;BME280;11179;52.106;21.024;2023-04-15T05:07:53;99642.34;;;8.92;75.55
22031;BME280;11179;52.106;21.024;2023-04-15T05:10:19;99637.66;;;8.92;75.66
22031;BME280;11179;52.106;21.024;2023-04-15T05:12:44;99647.00;;;8.91;75.61
22031;BME280;11179;52.106;21.024;2023-04-15T05:15:10;99633.53;;;8.85;75.88
22031;BME280;11179;52.106;21.024;2023-04-15T05:17:35;99638.22;;;8.89;76.04
22031;BME280;11179;52.106;21.024;2023-04-15T05:20:01;99640.91;;;8.84;76.39
22031;BME280;11179;52.106;21.024;2023-04-15T05:22:27;99645.31;;;8.85;76.41
22031;BME280;11179;52.106;21.024;2023-04-15T05:24:52;99636.22;;;8.80;76.44
22031;BME280;11179;52.106;21.024;2023-04-15T05:27:18;99636.53;;;8.83;76.21
22031;BME280;11179;52.106;21.024;2023-04-15T05:29:43;99632.19;;;8.87;76.38
22031;BME280;11179;52.106;21.024;2023-04-15T05:32:09;99643.72;;;8.94;76.44
22031;BME280;11179;52.106;21.024;2023-04-15T05:34:34;99640.97;;;8.94;75.91
22031;BME280;11179;52.106;21.024;2023-04-15T05:37:00;99635.75;;;8.93;76.04
22031;BME280;11179;52.106;21.024;2023-04-15T05:39:25;99640.44;;;8.97;75.82
22031;BME280;11179;52.106;21.024;2023-04-15T05:41:50;99640.41;;;8.87;76.03
22031;BME280;11179;52.106;21.024;2023-04-15T05:44:16;99648.91;;;8.91;76.01
22031;BME280;11179;52.106;21.024;2023-04-15T05:46:41;99629.41;;;8.77;76.31
22031;BME280;11179;52.106;21.024;2023-04-15T05:49:07;99651.34;;;8.92;76.18
22031;BME280;11179;52.106;21.024;2023-04-15T05:51:32;99647.25;;;8.90;76.27
22031;BME280;11179;52.106;21.024;2023-04-15T05:53:58;99646.13;;;8.86;76.54
22031;BME280;11179;52.106;21.024;2023-04-15T05:56:23;99646.41;;;8.84;76.33
22031;BME280;11179;52.106;21.024;2023-04-15T05:58:50;99643.09;;;8.82;76.58
22031;BME280;11179;52.106;21.024;2023-04-15T06:01:16;99655.75;;;8.93;76.47
22031;BME280;11179;52.106;21.024;2023-04-15T06:03:41;99651.66;;;8.96;76.49
22031;BME280;11179;52.106;21.024;2023-04-15T06:06:07;99656.06;;;8.97;76.27
22031;BME280;11179;52.106;21.024;2023-04-15T06:08:33;99641.78;;;8.90;76.38
22031;BME280;11179;52.106;21.024;2023-04-15T06:10:58;99648.09;;;8.90;76.49
22031;BME280;11179;52.106;21.024;2023-04-15T06:13:23;99659.88;;;8.96;76.47
22031;BME280;11179;52.106;21.024;2023-04-15T06:15:49;99652.16;;;8.88;76.75
22031;BME280;11179;52.106;21.024;2023-04-15T06:18:14;99659.06;;;8.95;76.76
22031;BME280;11179;52.106;21.024;2023-04-15T06:20:39;99668.91;;;8.96;76.63
22031;BME280;11179;52.106;21.024;2023-04-15T06:23:05;99662.88;;;8.94;76.93
22031;BME280;11179;52.106;21.024;2023-04-15T06:25:31;99660.13;;;8.89;76.89
22031;BME280;11179;52.106;21.024;2023-04-15T06:27:56;99654.66;;;8.89;77.05
22031;BME280;11179;52.106;21.024;2023-04-15T06:30:22;99660.38;;;8.88;77.26
22031;BME280;11179;52.106;21.024;2023-04-15T06:32:47;99659.81;;;8.86;77.10
22031;BME280;11179;52.106;21.024;2023-04-15T06:35:12;99668.28;;;8.84;77.54
22031;BME280;11179;52.106;21.024;2023-04-15T06:37:38;99668.84;;;8.86;77.26
22031;BME280;11179;52.106;21.024;2023-04-15T06:40:04;99668.84;;;8.86;77.54
22031;BME280;11179;52.106;21.024;2023-04-15T06:42:30;99661.69;;;8.80;77.66
22031;BME280;11179;52.106;21.024;2023-04-15T06:44:55;99658.16;;;8.85;77.58
22031;BME280;11179;52.106;21.024;2023-04-15T06:47:20;99673.81;;;8.89;77.76
22031;BME280;11179;52.106;21.024;2023-04-15T06:49:46;99672.16;;;8.93;77.83
22031;BME280;11179;52.106;21.024;2023-04-15T06:52:11;99673.56;;;8.91;77.59
22031;BME280;11179;52.106;21.024;2023-04-15T06:54:37;99685.59;;;8.95;77.76
22031;BME280;11179;52.106;21.024;2023-04-15T06:57:02;99678.47;;;8.94;77.47
22031;BME280;11179;52.106;21.024;2023-04-15T06:59:27;99684.78;;;8.94;77.56
22031;BME280;11179;52.106;21.024;2023-04-15T07:01:53;99687.78;;;8.93;77.81
22031;BME280;11179;52.106;21.024;2023-04-15T07:04:18;99683.94;;;8.89;77.97
22031;BME280;11179;52.106;21.024;2023-04-15T07:06:44;99687.25;;;8.91;78.10
22031;BME280;11179;52.106;21.024;2023-04-15T07:09:10;99688.31;;;8.90;77.82
22031;BME280;11179;52.106;21.024;2023-04-15T07:11:35;99701.19;;;8.94;77.64
22031;BME280;11179;52.106;21.024;2023-04-15T07:14:01;99687.78;;;8.93;77.79
22031;BME280;11179;52.106;21.024;2023-04-15T07:16:26;99690.25;;;8.89;78.04
22031;BME280;11179;52.106;21.024;2023-04-15T07:18:52;99691.06;;;8.95;77.96
22031;BME280;11179;52.106;21.024;2023-04-15T07:21:17;99692.72;;;8.96;77.46
22031;BME280;11179;52.106;21.024;2023-04-15T07:23:43;99697.69;;;8.99;77.72
22031;BME280;11179;52.106;21.024;2023-04-15T07:26:08;99680.94;;;8.95;77.91
22031;BME280;11179;52.106;21.024;2023-04-15T07:28:34;99694.69;;;9.00;77.60
22031;BME280;11179;52.106;21.024;2023-04-15T07:30:59;99697.72;;;9.04;77.49
22031;BME280;11179;52.106;21.024;2023-04-15T07:33:25;99698.00;;;9.02;77.69
22031;BME280;11179;52.106;21.024;2023-04-15T07:35:50;99706.78;;;9.04;77.59
22031;BME280;11179;52.106;21.024;2023-04-15T07:38:15;99693.84;;;9.00;77.68
22031;BME280;11179;52.106;21.024;2023-04-15T07:40:41;99695.25;;;9.02;77.79
22031;BME280;11179;52.106;21.024;2023-04-15T07:43:06;99688.06;;;8.96;77.83
22031;BME280;11179;52.106;21.024;2023-04-15T07:45:33;99684.25;;;8.97;77.85
22031;BME280;11179;52.106;21.024;2023-04-15T07:47:58;99681.25;;;8.99;77.66
22031;BME280;11179;52.106;21.024;2023-04-15T07:50:23;99693.59;;;9.01;78.04
22031;BME280;11179;52.106;21.024;2023-04-15T07:52:49;99685.91;;;8.98;78.18
22031;BME280;11179;52.106;21.024;2023-04-15T07:55:15;99688.38;;;9.00;78.20
22031;BME280;11179;52.106;21.024;2023-04-15T07:57:43;99680.44;;;8.98;78.42
22031;BME280;11179;52.106;21.024;2023-04-15T08:00:09;99696.41;;;9.12;78.15
22031;BME280;11179;52.106;21.024;2023-04-15T08:02:35;99689.03;;;9.17;77.87
22031;BME280;11179;52.106;21.024;2023-04-15T08:05:00;99675.59;;;9.16;77.64
22031;BME280;11179;52.106;21.024;2023-04-15T08:07:28;99683.56;;;9.22;77.55
22031;BME280;11179;52.106;21.024;2023-04-15T08:09:54;99693.22;;;9.30;77.60
22031;BME280;11179;52.106;21.024;2023-04-15T08:12:19;99693.19;;;9.25;77.42
22031;BME280;11179;52.106;21.024;2023-04-15T08:14:44;99697.59;;;9.31;77.47
22031;BME280;11179;52.106;21.024;2023-04-15T08:17:10;99698.69;;;9.35;77.10
22031;BME280;11179;52.106;21.024;2023-04-15T08:19:36;99692.94;;;9.31;77.50
22031;BME280;11179;52.106;21.024;2023-04-15T08:22:01;99698.19;;;9.38;77.23
22031;BME280;11179;52.106;21.024;2023-04-15T08:24:27;99684.44;;;9.33;76.97
22031;BME280;11179;52.106;21.024;2023-04-15T08:26:52;99685.59;;;9.42;76.93
22031;BME280;11179;52.106;21.024;2023-04-15T08:29:17;99697.38;;;9.48;77.08
22031;BME280;11179;52.106;21.024;2023-04-15T08:31:43;99687.81;;;9.50;76.98
22031;BME280;11179;52.106;21.024;2023-04-15T08:34:10;99691.09;;;9.47;76.98
22031;BME280;11179;52.106;21.024;2023-04-15T08:36:35;99696.06;;;9.55;77.06
22031;BME280;11179;52.106;21.024;2023-04-15T08:39:01;99699.31;;;9.47;77.11
22031;BME280;11179;52.106;21.024;2023-04-15T08:41:33;99706.44;;;9.43;77.04
22031;BME280;11179;52.106;21.024;2023-04-15T08:44:01;99690.75;;;9.33;77.15
22031;BME280;11179;52.106;21.024;2023-04-15T08:46:28;99693.78;;;9.37;77.26
22031;BME280;11179;52.106;21.024;2023-04-15T08:48:56;99696.56;;;9.42;76.98
22031;BME280;11179;52.106;21.024;2023-04-15T08:51:22;99704.25;;;9.50;77.03
22031;BME280;11179;52.106;21.024;2023-04-15T08:53:48;99704.56;;;9.54;77.10
22031;BME280;11179;52.106;21.024;2023-04-15T08:56:14;99710.34;;;9.57;76.95
22031;BME280;11179;52.106;21.024;2023-04-15T08:58:43;99696.06;;;9.60;77.20
22031;BME280;11179;52.106;21.024;2023-04-15T09:01:10;99703.47;;;9.55;77.05
22031;BME280;11179;52.106;21.024;2023-04-15T09:03:37;99698.53;;;9.57;77.30
22031;BME280;11179;52.106;21.024;2023-04-15T09:06:03;99694.16;;;9.56;77.10
22031;BME280;11179;52.106;21.024;2023-04-15T09:08:29;99699.41;;;9.67;76.86
22031;BME280;11179;52.106;21.024;2023-04-15T09:10:55;99707.13;;;9.75;76.76
22031;BME280;11179;52.106;21.024;2023-04-15T09:13:21;99700.56;;;9.76;76.64
22031;BME280;11179;52.106;21.024;2023-04-15T09:15:47;99713.72;;;9.80;76.54
22031;BME280;11179;52.106;21.024;2023-04-15T09:18:17;99699.19;;;9.79;76.82
22031;BME280;11179;52.106;21.024;2023-04-15T09:20:52;99712.59;;;9.75;76.62
22031;BME280;11179;52.106;21.024;2023-04-15T09:23:17;99707.09;;;9.70;76.97
22031;BME280;11179;52.106;21.024;2023-04-15T09:25:42;99695.84;;;9.72;77.15
22031;BME280;11179;52.106;21.024;2023-04-15T09:28:08;99711.25;;;9.78;76.91
22031;BME280;11179;52.106;21.024;2023-04-15T09:30:34;99715.66;;;9.79;76.98
22031;BME280;11179;52.106;21.024;2023-04-15T09:33:01;99697.81;;;9.76;76.99
22031;BME280;11179;52.106;21.024;2023-04-15T09:35:27;99713.47;;;9.81;77.11
22031;BME280;11179;52.106;21.024;2023-04-15T09:38:01;99720.88;;;9.91;77.18
22031;BME280;11179;52.106;21.024;2023-04-15T09:40:31;99717.91;;;9.97;77.06
22031;BME280;11179;52.106;21.024;2023-04-15T09:42:58;99704.19;;;9.97;77.11
22031;BME280;11179;52.106;21.024;2023-04-15T09:45:24;99710.25;;;10.04;77.02
22031;BME280;11179;52.106;21.024;2023-04-15T09:47:49;99717.06;;;10.02;77.06
22031;BME280;11179;52.106;21.024;2023-04-15T09:50:19;99719.31;;;10.10;77.20
22031;BME280;11179;52.106;21.024;2023-04-15T09:52:45;99720.97;;;10.11;77.25
22031;BME280;11179;52.106;21.024;2023-04-15T09:55:12;99715.75;;;10.09;76.78
22031;BME280;11179;52.106;21.024;2023-04-15T09:57:38;99713.00;;;10.09;76.72
22031;BME280;11179;52.106;21.024;2023-04-15T10:00:07;99718.19;;;10.06;76.87
22031;BME280;11179;52.106;21.024;2023-04-15T10:02:33;99714.34;;;10.02;77.19
22031;BME280;11179;52.106;21.024;2023-04-15T10:05:00;99712.16;;;10.04;77.30
22031;BME280;11179;52.106;21.024;2023-04-15T10:07:26;99698.44;;;10.14;77.03
22031;BME280;11179;52.106;21.024;2023-04-15T10:09:52;99716.03;;;10.28;76.95
22031;BME280;11179;52.106;21.024;2023-04-15T10:12:18;99724.28;;;10.33;76.73
22031;BME280;11179;52.106;21.024;2023-04-15T10:14:48;99721.25;;;10.25;76.62
22031;BME280;11179;52.106;21.024;2023-04-15T10:17:19;99720.69;;;10.18;76.87
22031;BME280;11179;52.106;21.024;2023-04-15T10:19:47;99720.69;;;10.18;77.00
22031;BME280;11179;52.106;21.024;2023-04-15T10:22:13;99714.38;;;10.27;76.76
22031;BME280;11179;52.106;21.024;2023-04-15T10:24:39;99717.97;;;10.43;76.43
22031;BME280;11179;52.106;21.024;2023-04-15T10:27:05;99730.88;;;10.47;76.13
22031;BME280;11179;52.106;21.024;2023-04-15T10:29:31;99722.09;;;10.45;76.21
22031;BME280;11179;52.106;21.024;2023-04-15T10:31:58;99721.00;;;10.41;76.20
22031;BME280;11179;52.106;21.024;2023-04-15T10:34:24;99732.00;;;10.46;75.92
22031;BME280;11179;52.106;21.024;2023-04-15T10:36:50;99726.50;;;10.52;76.09
22031;BME280;11179;52.106;21.024;2023-04-15T10:44:31;99731.97;;;10.67;75.59
22031;BME280;11179;52.106;21.024;2023-04-15T10:46:57;99732.56;;;10.74;75.52
22031;BME280;11179;52.106;21.024;2023-04-15T10:49:25;99730.91;;;10.73;75.34
22031;BME280;11179;52.106;21.024;2023-04-15T10:51:53;99734.72;;;10.67;75.13
22031;BME280;11179;52.106;21.024;2023-04-15T10:54:31;99737.19;;;10.68;75.03
22031;BME280;11179;52.106;21.024;2023-04-15T10:59:35;99739.66;;;10.80;75.37
22031;BME280;11179;52.106;21.024;2023-04-15T11:02:03;99743.25;;;10.91;75.04
22031;BME280;11179;52.106;21.024;2023-04-15T11:07:39;99739.66;;;11.26;74.56
22031;BME280;11179;52.106;21.024;2023-04-15T11:12:51;99737.66;;;11.57;74.32
22031;BME280;11179;52.106;21.024;2023-04-15T11:17:59;99741.47;;;11.66;74.06
22031;BME280;11179;52.106;21.024;2023-04-15T11:20:32;99736.78;;;11.71;73.80
22031;BME280;11179;52.106;21.024;2023-04-15T11:22:58;99741.16;;;11.77;73.52
22031;BME280;11179;52.106;21.024;2023-04-15T11:25:23;99747.41;;;11.88;73.40
22031;BME280;11179;52.106;21.024;2023-04-15T11:27:50;99733.72;;;11.83;72.63
22031;BME280;11179;52.106;21.024;2023-04-15T11:30:20;99743.00;;;11.97;72.07
22031;BME280;11179;52.106;21.024;2023-04-15T11:32:47;99741.28;;;12.06;71.82
22031;BME280;11179;52.106;21.024;2023-04-15T11:35:13;99749.53;;;12.11;71.21
22031;BME280;11179;52.106;21.024;2023-04-15T11:37:38;99744.03;;;12.06;71.31
22031;BME280;11179;52.106;21.024;2023-04-15T11:40:05;99749.81;;;12.05;71.28
22031;BME280;11179;52.106;21.024;2023-04-15T11:42:31;99744.63;;;11.98;71.12
22031;BME280;11179;52.106;21.024;2023-04-15T11:45:09;99763.09;;;11.93;70.90
22031;BME280;11179;52.106;21.024;2023-04-15T11:47:36;99763.16;;;11.72;70.61
22031;BME280;11179;52.106;21.024;2023-04-15T11:50:17;99771.16;;;11.64;71.13
22031;BME280;11179;52.106;21.024;2023-04-15T11:52:57;99762.69;;;11.55;71.08
22031;BME280;11179;52.106;21.024;2023-04-15T11:55:23;99758.25;;;11.59;71.16
22031;BME280;11179;52.106;21.024;2023-04-15T11:58:16;99769.47;;;11.78;70.74
22031;BME280;11179;52.106;21.024;2023-04-15T12:00:56;99770.19;;;12.04;70.25
22031;BME280;11179;52.106;21.024;2023-04-15T12:11:29;99770.31;;;12.38;68.73
22031;BME280;11179;52.106;21.024;2023-04-15T12:16:27;99785.13;;;12.47;68.43
22031;BME280;11179;52.106;21.024;2023-04-15T12:18:54;99778.56;;;12.33;68.07
22031;BME280;11179;52.106;21.024;2023-04-15T12:21:22;99784.34;;;12.36;67.82
22031;BME280;11179;52.106;21.024;2023-04-15T12:23:52;99786.84;;;12.27;67.81
22031;BME280;11179;52.106;21.024;2023-04-15T12:26:24;99789.88;;;12.31;67.55
22031;BME280;11179;52.106;21.024;2023-04-15T12:28:53;99799.25;;;12.25;66.95
22031;BME280;11179;52.106;21.024;2023-04-15T12:31:19;99787.47;;;12.19;66.74
22031;BME280;11179;52.106;21.024;2023-04-15T12:33:47;99794.59;;;12.20;66.12
22031;BME280;11179;52.106;21.024;2023-04-15T12:36:13;99789.66;;;12.22;65.78
22031;BME280;11179;52.106;21.024;2023-04-15T12:38:38;99795.38;;;12.26;65.69
22031;BME280;11179;52.106;21.024;2023-04-15T12:41:04;99796.19;;;12.37;65.68
22031;BME280;11179;52.106;21.024;2023-04-15T12:43:29;99798.09;;;12.41;65.19
22031;BME280;11179;52.106;21.024;2023-04-15T12:45:54;99804.13;;;12.48;65.28
22031;BME280;11179;52.106;21.024;2023-04-15T12:48:20;99804.63;;;12.55;65.06
22031;BME280;11179;52.106;21.024;2023-04-15T12:50:45;99802.59;;;12.71;64.88
22031;BME280;11179;52.106;21.024;2023-04-15T12:53:10;99809.94;;;12.81;64.31
22031;BME280;11179;52.106;21.024;2023-04-15T12:55:37;99810.06;;;12.66;63.77
22031;BME280;11179;52.106;21.024;2023-04-15T12:58:02;99801.13;;;12.40;63.87
22031;BME280;11179;52.106;21.024;2023-04-15T13:00:27;99810.22;;;12.35;64.42
22031;BME280;11179;52.106;21.024;2023-04-15T13:02:53;99802.00;;;12.25;64.45
22031;BME280;11179;52.106;21.024;2023-04-15T13:05:18;99792.13;;;12.19;64.49
22031;BME280;11179;52.106;21.024;2023-04-15T13:07:44;99813.88;;;12.20;64.36
22031;BME280;11179;52.106;21.024;2023-04-15T13:10:09;99820.78;;;12.13;64.29
22031;BME280;11179;52.106;21.024;2023-04-15T13:12:35;99816.63;;;12.15;64.06
22031;BME280;11179;52.106;21.024;2023-04-15T13:15:04;99815.84;;;12.10;63.96
22031;BME280;11179;52.106;21.024;2023-04-15T13:17:29;99827.97;;;12.09;64.13
22031;BME280;11179;52.106;21.024;2023-04-15T13:19:55;99828.19;;;12.22;64.17